sensor_id;sensor_type;location;lat;lon;timestamp;temperature;humidity
5940;DHT22;2995;-31.998;115.906;2022-11-15T00:01:18;23.70;99.90
5940;DHT22;2995;-31.998;115.906;2022-11-15T00:03:52;24.20;99.90
5940;DHT22;2995;-31.998;115.906;2022-11-15T00:06:24;24.50;99.90
5940;DHT22;2995;-31.998;115.906;2022-11-15T00:08:58;24.40;99.90
5940;DHT22;2995;-31.998;115.906;2022-11-15T00:11:30;24.70;99.90
5940;DHT22;2995;-31.998;115.906;2022-11-15T00:14:02;24.80;99.90
5940;DHT22;2995;-31.998;115.906;2022-11-15T00:16:36;24.90;99.90
5940;DHT22;2995;-31.998;115.906;2022-11-15T00:19:07;24.80;99.90
5940;DHT22;2995;-31.998;115.906;2022-11-15T00:21:38;25.10;99.90
5940;DHT22;2995;-31.998;115.906;2022-11-15T00:24:11;25.00;99.90
5940;DHT22;2995;-31.998;115.906;2022-11-15T00:26:42;25.60;99.90
5940;DHT22;2995;-31.998;115.906;2022-11-15T00:29:14;25.50;99.90
5940;DHT22;2995;-31.998;115.906;2022-11-15T00:31:48;25.80;99.90
5940;DHT22;2995;-31.998;115.906;2022-11-15T00:34:19;26.90;99.90
5940;DHT22;2995;-31.998;115.906;2022-11-15T00:36:51;26.90;99.90
5940;DHT22;2995;-31.998;115.906;2022-11-15T00:39:24;27.00;99.90
5940;DHT22;2995;-31.998;115.906;2022-11-15T00:41:55;26.40;99.90
5940;DHT22;2995;-31.998;115.906;2022-11-15T00:44:27;26.90;99.90
5940;DHT22;2995;-31.998;115.906;2022-11-15T00:47:01;27.50;99.90
5940;DHT22;2995;-31.998;115.906;2022-11-15T00:49:32;27.40;99.90
5940;DHT22;2995;-31.998;115.906;2022-11-15T00:52:04;26.80;99.90
5940;DHT22;2995;-31.998;115.906;2022-11-15T00:54:36;26.60;99.90
5940;DHT22;2995;-31.998;115.906;2022-11-15T00:57:07;27.00;99.90
5940;DHT22;2995;-31.998;115.906;2022-11-15T00:59:39;27.20;99.90
5940;DHT22;2995;-31.998;115.906;2022-11-15T01:02:13;28.00;99.90
5940;DHT22;2995;-31.998;115.906;2022-11-15T01:04:44;27.80;99.90
5940;DHT22;2995;-31.998;115.906;2022-11-15T01:07:16;27.50;99.90
5940;DHT22;2995;-31.998;115.906;2022-11-15T01:09:48;26.90;99.90
5940;DHT22;2995;-31.998;115.906;2022-11-15T01:12:19;26.80;99.90
5940;DHT22;2995;-31.998;115.906;2022-11-15T01:14:52;27.40;99.90
5940;DHT22;2995;-31.998;115.906;2022-11-15T01:17:26;27.40;99.90
5940;DHT22;2995;-31.998;115.906;2022-11-15T01:19:58;27.20;99.90
5940;DHT22;2995;-31.998;115.906;2022-11-15T01:22:29;27.10;99.90
5940;DHT22;2995;-31.998;115.906;2022-11-15T01:25:01;27.40;99.90
5940;DHT22;2995;-31.998;115.906;2022-11-15T01:27:33;27.70;99.90
5940;DHT22;2995;-31.998;115.906;2022-11-15T01:30:06;27.40;99.90
5940;DHT22;2995;-31.998;115.906;2022-11-15T01:32:41;27.00;99.90
5940;DHT22;2995;-31.998;115.906;2022-11-15T01:35:13;26.30;99.90
5940;DHT22;2995;-31.998;115.906;2022-11-15T01:37:44;25.60;99.90
5940;DHT22;2995;-31.998;115.906;2022-11-15T01:40:16;25.70;99.90
5940;DHT22;2995;-31.998;115.906;2022-11-15T01:42:47;25.90;99.90
5940;DHT22;2995;-31.998;115.906;2022-11-15T01:45:18;25.50;99.90
5940;DHT22;2995;-31.998;115.906;2022-11-15T01:47:53;26.20;99.90
5940;DHT22;2995;-31.998;115.906;2022-11-15T01:50:28;26.60;99.90
5940;DHT22;2995;-31.998;115.906;2022-11-15T01:53:01;26.50;99.90
5940;DHT22;2995;-31.998;115.906;2022-11-15T01:55:33;26.40;99.90
5940;DHT22;2995;-31.998;115.906;2022-11-15T01:58:05;26.30;99.90
5940;DHT22;2995;-31.998;115.906;2022-11-15T02:00:38;26.40;99.90
5940;DHT22;2995;-31.998;115.906;2022-11-15T02:03:12;26.30;99.90
5940;DHT22;2995;-31.998;115.906;2022-11-15T02:05:44;26.10;99.90
5940;DHT22;2995;-31.998;115.906;2022-11-15T02:08:16;25.80;99.90
5940;DHT22;2995;-31.998;115.906;2022-11-15T02:10:49;26.10;99.90
5940;DHT22;2995;-31.998;115.906;2022-11-15T02:13:21;26.30;99.90
5940;DHT22;2995;-31.998;115.906;2022-11-15T02:16:00;25.80;99.90
5940;DHT22;2995;-31.998;115.906;2022-11-15T02:18:41;26.10;99.90
5940;DHT22;2995;-31.998;115.906;2022-11-15T02:21:21;25.60;99.90
5940;DHT22;2995;-31.998;115.906;2022-11-15T02:30:23;26.00;99.90
5940;DHT22;2995;-31.998;115.906;2022-11-15T02:32:57;26.50;99.90
5940;DHT22;2995;-31.998;115.906;2022-11-15T02:35:37;26.40;99.90
5940;DHT22;2995;-31.998;115.906;2022-11-15T02:38:16;25.90;99.90
5940;DHT22;2995;-31.998;115.906;2022-11-15T02:40:53;25.60;99.90
5940;DHT22;2995;-31.998;115.906;2022-11-15T02:43:31;25.90;99.90
5940;DHT22;2995;-31.998;115.906;2022-11-15T02:46:27;26.10;99.90
5940;DHT22;2995;-31.998;115.906;2022-11-15T02:49:14;26.10;99.90
5940;DHT22;2995;-31.998;115.906;2022-11-15T02:51:46;25.90;99.90
5940;DHT22;2995;-31.998;115.906;2022-11-15T02:54:22;25.70;99.90
5940;DHT22;2995;-31.998;115.906;2022-11-15T02:56:56;26.30;99.90
5940;DHT22;2995;-31.998;115.906;2022-11-15T03:00:03;26.50;99.90
5940;DHT22;2995;-31.998;115.906;2022-11-15T03:02:47;26.60;99.90
5940;DHT22;2995;-31.998;115.906;2022-11-15T03:05:26;26.40;99.90
5940;DHT22;2995;-31.998;115.906;2022-11-15T03:08:05;26.70;99.90
5940;DHT22;2995;-31.998;115.906;2022-11-15T03:10:46;26.70;99.90
5940;DHT22;2995;-31.998;115.906;2022-11-15T03:13:27;26.80;99.90
5940;DHT22;2995;-31.998;115.906;2022-11-15T03:16:03;26.70;99.90
5940;DHT22;2995;-31.998;115.906;2022-11-15T03:18:40;26.70;99.90
5940;DHT22;2995;-31.998;115.906;2022-11-15T03:21:13;26.40;99.80
5940;DHT22;2995;-31.998;115.906;2022-11-15T03:23:45;26.40;99.90
5940;DHT22;2995;-31.998;115.906;2022-11-15T03:26:20;26.60;99.90
5940;DHT22;2995;-31.998;115.906;2022-11-15T03:28:55;27.10;99.90
5940;DHT22;2995;-31.998;115.906;2022-11-15T03:31:30;27.20;99.90
5940;DHT22;2995;-31.998;115.906;2022-11-15T03:34:24;27.30;99.60
5940;DHT22;2995;-31.998;115.906;2022-11-15T03:36:57;27.20;99.60
5940;DHT22;2995;-31.998;115.906;2022-11-15T03:39:29;27.30;99.10
5940;DHT22;2995;-31.998;115.906;2022-11-15T03:42:13;27.50;98.60
5940;DHT22;2995;-31.998;115.906;2022-11-15T03:44:49;27.20;98.40
5940;DHT22;2995;-31.998;115.906;2022-11-15T03:47:26;26.90;99.30
5940;DHT22;2995;-31.998;115.906;2022-11-15T03:50:03;27.40;99.10
5940;DHT22;2995;-31.998;115.906;2022-11-15T03:52:36;27.80;97.10
5940;DHT22;2995;-31.998;115.906;2022-11-15T03:55:10;27.80;98.00
5940;DHT22;2995;-31.998;115.906;2022-11-15T03:57:41;27.20;97.00
5940;DHT22;2995;-31.998;115.906;2022-11-15T04:00:13;27.40;97.60
5940;DHT22;2995;-31.998;115.906;2022-11-15T04:02:45;27.20;97.50
5940;DHT22;2995;-31.998;115.906;2022-11-15T04:05:18;27.50;97.50
5940;DHT22;2995;-31.998;115.906;2022-11-15T04:07:50;27.60;97.50
5940;DHT22;2995;-31.998;115.906;2022-11-15T04:10:21;27.90;97.40
5940;DHT22;2995;-31.998;115.906;2022-11-15T04:12:52;27.50;97.70
5940;DHT22;2995;-31.998;115.906;2022-11-15T04:15:24;27.40;96.90
5940;DHT22;2995;-31.998;115.906;2022-11-15T04:17:59;27.20;96.80
5940;DHT22;2995;-31.998;115.906;2022-11-15T04:20:33;27.50;97.20
5940;DHT22;2995;-31.998;115.906;2022-11-15T04:23:20;27.60;97.40
5940;DHT22;2995;-31.998;115.906;2022-11-15T04:26:09;28.00;95.90
5940;DHT22;2995;-31.998;115.906;2022-11-15T04:28:43;28.00;95.10
5940;DHT22;2995;-31.998;115.906;2022-11-15T04:31:26;28.10;95.80
5940;DHT22;2995;-31.998;115.906;2022-11-15T04:33:58;28.10;94.00
5940;DHT22;2995;-31.998;115.906;2022-11-15T04:36:31;28.10;95.30
5940;DHT22;2995;-31.998;115.906;2022-11-15T04:39:18;28.10;94.40
5940;DHT22;2995;-31.998;115.906;2022-11-15T04:41:50;28.00;94.40
5940;DHT22;2995;-31.998;115.906;2022-11-15T04:44:21;27.90;92.30
5940;DHT22;2995;-31.998;115.906;2022-11-15T04:46:52;27.70;92.30
5940;DHT22;2995;-31.998;115.906;2022-11-15T04:49:24;27.90;93.60
5940;DHT22;2995;-31.998;115.906;2022-11-15T04:51:57;28.00;93.90
5940;DHT22;2995;-31.998;115.906;2022-11-15T04:54:29;27.90;93.20
5940;DHT22;2995;-31.998;115.906;2022-11-15T04:57:02;27.60;93.60
5940;DHT22;2995;-31.998;115.906;2022-11-15T04:59:33;27.60;93.10
5940;DHT22;2995;-31.998;115.906;2022-11-15T05:02:05;27.70;93.60
5940;DHT22;2995;-31.998;115.906;2022-11-15T05:04:36;27.70;92.70
5940;DHT22;2995;-31.998;115.906;2022-11-15T05:07:08;27.70;92.70
5940;DHT22;2995;-31.998;115.906;2022-11-15T05:09:39;27.70;92.10
5940;DHT22;2995;-31.998;115.906;2022-11-15T05:12:11;28.00;92.40
5940;DHT22;2995;-31.998;115.906;2022-11-15T05:14:42;28.20;92.70
5940;DHT22;2995;-31.998;115.906;2022-11-15T05:17:13;28.00;92.40
5940;DHT22;2995;-31.998;115.906;2022-11-15T05:19:47;28.10;92.10
5940;DHT22;2995;-31.998;115.906;2022-11-15T05:22:21;28.10;92.10
5940;DHT22;2995;-31.998;115.906;2022-11-15T05:24:53;28.20;92.30
5940;DHT22;2995;-31.998;115.906;2022-11-15T05:27:24;28.30;91.80
5940;DHT22;2995;-31.998;115.906;2022-11-15T05:29:56;28.10;90.80
5940;DHT22;2995;-31.998;115.906;2022-11-15T05:32:28;27.90;91.30
5940;DHT22;2995;-31.998;115.906;2022-11-15T05:35:00;28.10;91.50
5940;DHT22;2995;-31.998;115.906;2022-11-15T05:37:34;28.10;90.90
5940;DHT22;2995;-31.998;115.906;2022-11-15T05:40:06;28.10;90.80
5940;DHT22;2995;-31.998;115.906;2022-11-15T05:42:38;28.00;90.80
5940;DHT22;2995;-31.998;115.906;2022-11-15T05:45:10;27.90;90.90
5940;DHT22;2995;-31.998;115.906;2022-11-15T05:47:42;28.30;90.10
5940;DHT22;2995;-31.998;115.906;2022-11-15T05:50:16;28.20;90.80
5940;DHT22;2995;-31.998;115.906;2022-11-15T05:52:52;28.20;90.40
5940;DHT22;2995;-31.998;115.906;2022-11-15T05:55:25;28.20;91.50
5940;DHT22;2995;-31.998;115.906;2022-11-15T05:57:56;28.50;90.70
5940;DHT22;2995;-31.998;115.906;2022-11-15T06:00:27;28.50;90.40
5940;DHT22;2995;-31.998;115.906;2022-11-15T06:02:59;28.30;86.60
5940;DHT22;2995;-31.998;115.906;2022-11-15T06:05:30;28.20;88.60
5940;DHT22;2995;-31.998;115.906;2022-11-15T06:08:03;28.30;89.20
5940;DHT22;2995;-31.998;115.906;2022-11-15T06:10:35;28.50;90.20
5940;DHT22;2995;-31.998;115.906;2022-11-15T06:13:06;28.70;90.30
5940;DHT22;2995;-31.998;115.906;2022-11-15T06:15:38;29.00;90.20
5940;DHT22;2995;-31.998;115.906;2022-11-15T06:18:09;29.00;90.10
5940;DHT22;2995;-31.998;115.906;2022-11-15T06:20:41;29.10;89.20
5940;DHT22;2995;-31.998;115.906;2022-11-15T06:23:14;29.00;88.30
5940;DHT22;2995;-31.998;115.906;2022-11-15T06:25:45;28.90;87.40
5940;DHT22;2995;-31.998;115.906;2022-11-15T06:28:16;28.70;86.30
5940;DHT22;2995;-31.998;115.906;2022-11-15T06:30:47;28.80;85.50
5940;DHT22;2995;-31.998;115.906;2022-11-15T06:33:19;28.70;85.30
5940;DHT22;2995;-31.998;115.906;2022-11-15T06:35:51;28.70;85.70
5940;DHT22;2995;-31.998;115.906;2022-11-15T06:38:25;28.70;85.20
5940;DHT22;2995;-31.998;115.906;2022-11-15T06:41:02;28.70;84.00
5940;DHT22;2995;-31.998;115.906;2022-11-15T06:43:34;28.50;83.40
5940;DHT22;2995;-31.998;115.906;2022-11-15T06:46:06;28.50;84.00
5940;DHT22;2995;-31.998;115.906;2022-11-15T06:48:37;28.60;83.00
5940;DHT22;2995;-31.998;115.906;2022-11-15T06:51:09;28.40;81.60
5940;DHT22;2995;-31.998;115.906;2022-11-15T06:53:42;28.50;83.40
5940;DHT22;2995;-31.998;115.906;2022-11-15T06:56:13;28.70;84.00
5940;DHT22;2995;-31.998;115.906;2022-11-15T06:58:45;28.60;82.70
5940;DHT22;2995;-31.998;115.906;2022-11-15T07:01:16;28.70;83.10
5940;DHT22;2995;-31.998;115.906;2022-11-15T07:03:47;28.80;82.90
5940;DHT22;2995;-31.998;115.906;2022-11-15T07:06:19;28.70;83.40
5940;DHT22;2995;-31.998;115.906;2022-11-15T07:08:52;28.90;82.90
5940;DHT22;2995;-31.998;115.906;2022-11-15T07:11:24;28.90;84.10
5940;DHT22;2995;-31.998;115.906;2022-11-15T07:13:55;29.00;84.40
5940;DHT22;2995;-31.998;115.906;2022-11-15T07:16:27;29.00;90.40
5940;DHT22;2995;-31.998;115.906;2022-11-15T07:18:58;28.90;90.70
5940;DHT22;2995;-31.998;115.906;2022-11-15T07:21:29;28.70;91.20
5940;DHT22;2995;-31.998;115.906;2022-11-15T07:24:03;28.80;91.10
5940;DHT22;2995;-31.998;115.906;2022-11-15T07:26:34;28.70;91.30
5940;DHT22;2995;-31.998;115.906;2022-11-15T07:29:06;28.50;91.50
5940;DHT22;2995;-31.998;115.906;2022-11-15T07:31:38;28.40;92.30
5940;DHT22;2995;-31.998;115.906;2022-11-15T07:34:10;28.30;93.20
5940;DHT22;2995;-31.998;115.906;2022-11-15T07:36:41;28.20;92.50
5940;DHT22;2995;-31.998;115.906;2022-11-15T07:39:14;28.00;92.20
5940;DHT22;2995;-31.998;115.906;2022-11-15T07:41:45;27.80;92.30
5940;DHT22;2995;-31.998;115.906;2022-11-15T07:44:17;27.80;92.60
5940;DHT22;2995;-31.998;115.906;2022-11-15T07:46:48;27.60;93.40
5940;DHT22;2995;-31.998;115.906;2022-11-15T07:49:19;27.60;93.90
5940;DHT22;2995;-31.998;115.906;2022-11-15T07:51:51;27.70;94.20
5940;DHT22;2995;-31.998;115.906;2022-11-15T07:54:24;27.80;93.70
5940;DHT22;2995;-31.998;115.906;2022-11-15T07:56:56;27.80;93.70
5940;DHT22;2995;-31.998;115.906;2022-11-15T07:59:27;27.70;94.10
5940;DHT22;2995;-31.998;115.906;2022-11-15T08:01:59;27.50;94.00
5940;DHT22;2995;-31.998;115.906;2022-11-15T08:04:30;27.40;94.20
5940;DHT22;2995;-31.998;115.906;2022-11-15T08:07:02;27.40;93.90
5940;DHT22;2995;-31.998;115.906;2022-11-15T08:09:35;27.30;93.00
5940;DHT22;2995;-31.998;115.906;2022-11-15T08:12:06;27.00;92.70
5940;DHT22;2995;-31.998;115.906;2022-11-15T08:14:38;27.00;93.30
5940;DHT22;2995;-31.998;115.906;2022-11-15T08:17:09;27.00;93.50
5940;DHT22;2995;-31.998;115.906;2022-11-15T08:19:41;27.00;93.80
5940;DHT22;2995;-31.998;115.906;2022-11-15T08:22:12;26.90;94.10
5940;DHT22;2995;-31.998;115.906;2022-11-15T08:24:46;26.90;94.30
5940;DHT22;2995;-31.998;115.906;2022-11-15T08:27:17;26.80;93.50
5940;DHT22;2995;-31.998;115.906;2022-11-15T08:29:49;26.60;94.00
5940;DHT22;2995;-31.998;115.906;2022-11-15T08:32:21;26.60;94.60
5940;DHT22;2995;-31.998;115.906;2022-11-15T08:34:53;26.60;94.40
5940;DHT22;2995;-31.998;115.906;2022-11-15T08:37:24;26.40;94.70
5940;DHT22;2995;-31.998;115.906;2022-11-15T08:39:57;26.30;95.00
5940;DHT22;2995;-31.998;115.906;2022-11-15T08:42:29;26.20;95.20
5940;DHT22;2995;-31.998;115.906;2022-11-15T08:45:00;26.20;95.90
5940;DHT22;2995;-31.998;115.906;2022-11-15T08:47:31;26.20;96.10
5940;DHT22;2995;-31.998;115.906;2022-11-15T08:50:02;26.30;96.20
5940;DHT22;2995;-31.998;115.906;2022-11-15T08:52:34;26.20;96.60
5940;DHT22;2995;-31.998;115.906;2022-11-15T08:55:08;26.00;96.20
5940;DHT22;2995;-31.998;115.906;2022-11-15T08:57:40;26.00;96.60
5940;DHT22;2995;-31.998;115.906;2022-11-15T09:00:13;25.90;96.70
5940;DHT22;2995;-31.998;115.906;2022-11-15T09:02:44;25.80;96.80
5940;DHT22;2995;-31.998;115.906;2022-11-15T09:05:15;25.80;97.00
5940;DHT22;2995;-31.998;115.906;2022-11-15T09:07:47;25.80;97.50
5940;DHT22;2995;-31.998;115.906;2022-11-15T09:10:20;25.70;97.60
5940;DHT22;2995;-31.998;115.906;2022-11-15T09:12:52;25.70;97.80
5940;DHT22;2995;-31.998;115.906;2022-11-15T09:15:24;25.70;97.30
5940;DHT22;2995;-31.998;115.906;2022-11-15T09:17:59;25.60;97.70
5940;DHT22;2995;-31.998;115.906;2022-11-15T09:20:30;25.60;97.50
5940;DHT22;2995;-31.998;115.906;2022-11-15T09:23:03;25.40;97.60
5940;DHT22;2995;-31.998;115.906;2022-11-15T09:25:37;25.40;97.70
5940;DHT22;2995;-31.998;115.906;2022-11-15T09:28:10;25.30;97.60
5940;DHT22;2995;-31.998;115.906;2022-11-15T09:30:42;25.20;97.20
5940;DHT22;2995;-31.998;115.906;2022-11-15T09:33:14;25.10;97.10
5940;DHT22;2995;-31.998;115.906;2022-11-15T09:35:46;25.10;97.50
5940;DHT22;2995;-31.998;115.906;2022-11-15T09:38:17;25.10;97.70
5940;DHT22;2995;-31.998;115.906;2022-11-15T09:41:08;25.00;97.20
5940;DHT22;2995;-31.998;115.906;2022-11-15T09:43:50;25.00;97.60
5940;DHT22;2995;-31.998;115.906;2022-11-15T09:46:32;25.00;97.70
5940;DHT22;2995;-31.998;115.906;2022-11-15T09:49:06;25.00;97.60
5940;DHT22;2995;-31.998;115.906;2022-11-15T09:51:41;24.90;97.70
5940;DHT22;2995;-31.998;115.906;2022-11-15T09:54:26;24.80;97.70
5940;DHT22;2995;-31.998;115.906;2022-11-15T09:57:06;24.60;97.90
5940;DHT22;2995;-31.998;115.906;2022-11-15T09:59:51;24.50;98.20
5940;DHT22;2995;-31.998;115.906;2022-11-15T10:02:49;24.40;98.30
5940;DHT22;2995;-31.998;115.906;2022-11-15T10:05:26;24.40;98.40
5940;DHT22;2995;-31.998;115.906;2022-11-15T10:08:06;24.30;98.60
5940;DHT22;2995;-31.998;115.906;2022-11-15T10:10:43;24.20;98.70
5940;DHT22;2995;-31.998;115.906;2022-11-15T10:13:22;24.20;99.00
5940;DHT22;2995;-31.998;115.906;2022-11-15T10:15:59;24.00;98.90
5940;DHT22;2995;-31.998;115.906;2022-11-15T10:18:35;24.00;98.90
5940;DHT22;2995;-31.998;115.906;2022-11-15T10:21:19;23.90;99.00
5940;DHT22;2995;-31.998;115.906;2022-11-15T10:23:53;23.80;99.20
5940;DHT22;2995;-31.998;115.906;2022-11-15T10:26:24;23.70;99.10
5940;DHT22;2995;-31.998;115.906;2022-11-15T10:28:59;23.60;99.30
5940;DHT22;2995;-31.998;115.906;2022-11-15T10:31:31;23.60;99.50
5940;DHT22;2995;-31.998;115.906;2022-11-15T10:34:13;23.50;99.70
5940;DHT22;2995;-31.998;115.906;2022-11-15T10:36:47;23.50;99.80
5940;DHT22;2995;-31.998;115.906;2022-11-15T10:39:25;23.30;99.80
5940;DHT22;2995;-31.998;115.906;2022-11-15T10:41:57;23.30;99.90
5940;DHT22;2995;-31.998;115.906;2022-11-15T10:44:31;23.10;99.90
5940;DHT22;2995;-31.998;115.906;2022-11-15T10:47:20;23.00;99.90
5940;DHT22;2995;-31.998;115.906;2022-11-15T10:49:59;22.90;99.90
5940;DHT22;2995;-31.998;115.906;2022-11-15T10:52:31;22.90;99.90
5940;DHT22;2995;-31.998;115.906;2022-11-15T10:55:19;22.90;99.90
5940;DHT22;2995;-31.998;115.906;2022-11-15T10:57:53;22.80;99.90
5940;DHT22;2995;-31.998;115.906;2022-11-15T11:00:32;22.70;99.90
5940;DHT22;2995;-31.998;115.906;2022-11-15T11:03:05;22.60;99.90
5940;DHT22;2995;-31.998;115.906;2022-11-15T11:05:39;22.60;99.90
5940;DHT22;2995;-31.998;115.906;2022-11-15T11:08:24;22.60;99.90
5940;DHT22;2995;-31.998;115.906;2022-11-15T11:10:57;22.40;99.90
5940;DHT22;2995;-31.998;115.906;2022-11-15T11:13:29;22.40;99.90
5940;DHT22;2995;-31.998;115.906;2022-11-15T11:19:02;22.30;99.90
5940;DHT22;2995;-31.998;115.906;2022-11-15T11:21:47;22.30;99.90
5940;DHT22;2995;-31.998;115.906;2022-11-15T11:24:25;22.30;99.90
5940;DHT22;2995;-31.998;115.906;2022-11-15T11:27:18;22.20;99.90
5940;DHT22;2995;-31.998;115.906;2022-11-15T11:30:06;22.20;99.90
5940;DHT22;2995;-31.998;115.906;2022-11-15T11:32:54;22.10;99.90
5940;DHT22;2995;-31.998;115.906;2022-11-15T11:35:32;22.00;99.90
5940;DHT22;2995;-31.998;115.906;2022-11-15T11:38:19;22.00;99.90
5940;DHT22;2995;-31.998;115.906;2022-11-15T11:41:01;21.90;99.90
5940;DHT22;2995;-31.998;115.906;2022-11-15T11:43:45;21.80;99.90
5940;DHT22;2995;-31.998;115.906;2022-11-15T11:46:31;21.80;99.90
5940;DHT22;2995;-31.998;115.906;2022-11-15T11:49:10;21.70;99.90
5940;DHT22;2995;-31.998;115.906;2022-11-15T11:51:49;21.50;99.90
5940;DHT22;2995;-31.998;115.906;2022-11-15T11:54:24;21.30;99.90
5940;DHT22;2995;-31.998;115.906;2022-11-15T11:57:00;21.30;99.90
5940;DHT22;2995;-31.998;115.906;2022-11-15T11:59:39;21.30;99.90
5940;DHT22;2995;-31.998;115.906;2022-11-15T12:02:17;21.20;99.90
5940;DHT22;2995;-31.998;115.906;2022-11-15T12:04:57;21.20;99.90
5940;DHT22;2995;-31.998;115.906;2022-11-15T12:07:31;21.20;99.90
5940;DHT22;2995;-31.998;115.906;2022-11-15T12:10:11;21.20;99.90
5940;DHT22;2995;-31.998;115.906;2022-11-15T12:12:50;21.20;99.90
5940;DHT22;2995;-31.998;115.906;2022-11-15T12:15:25;21.00;99.90
5940;DHT22;2995;-31.998;115.906;2022-11-15T12:17:58;21.00;99.90
5940;DHT22;2995;-31.998;115.906;2022-11-15T12:20:37;21.00;99.90
5940;DHT22;2995;-31.998;115.906;2022-11-15T12:23:15;20.80;99.90
5940;DHT22;2995;-31.998;115.906;2022-11-15T12:25:50;20.90;99.90
5940;DHT22;2995;-31.998;115.906;2022-11-15T12:28:29;20.80;99.90
5940;DHT22;2995;-31.998;115.906;2022-11-15T12:31:05;20.80;99.90
5940;DHT22;2995;-31.998;115.906;2022-11-15T12:33:39;20.70;99.90
5940;DHT22;2995;-31.998;115.906;2022-11-15T12:36:34;20.70;99.90
5940;DHT22;2995;-31.998;115.906;2022-11-15T12:39:07;20.70;99.90
5940;DHT22;2995;-31.998;115.906;2022-11-15T12:41:40;20.40;99.90
5940;DHT22;2995;-31.998;115.906;2022-11-15T12:44:15;20.40;99.90
5940;DHT22;2995;-31.998;115.906;2022-11-15T12:47:22;20.40;99.90
5940;DHT22;2995;-31.998;115.906;2022-11-15T12:49:55;20.30;99.90
5940;DHT22;2995;-31.998;115.906;2022-11-15T12:52:28;20.30;99.90
5940;DHT22;2995;-31.998;115.906;2022-11-15T12:55:30;20.20;99.90
5940;DHT22;2995;-31.998;115.906;2022-11-15T13:01:08;20.10;99.90
5940;DHT22;2995;-31.998;115.906;2022-11-15T13:04:13;20.10;99.90
5940;DHT22;2995;-31.998;115.906;2022-11-15T13:06:46;20.20;99.90
5940;DHT22;2995;-31.998;115.906;2022-11-15T13:09:56;19.90;99.90
5940;DHT22;2995;-31.998;115.906;2022-11-15T13:12:52;19.80;99.90
5940;DHT22;2995;-31.998;115.906;2022-11-15T13:15:36;19.80;99.90
5940;DHT22;2995;-31.998;115.906;2022-11-15T13:18:35;19.80;99.90
5940;DHT22;2995;-31.998;115.906;2022-11-15T13:21:21;19.70;99.90
5940;DHT22;2995;-31.998;115.906;2022-11-15T13:24:14;19.70;99.90
5940;DHT22;2995;-31.998;115.906;2022-11-15T13:26:48;19.60;99.90
5940;DHT22;2995;-31.998;115.906;2022-11-15T13:29:21;19.50;99.90
5940;DHT22;2995;-31.998;115.906;2022-11-15T13:31:52;19.50;99.90
5940;DHT22;2995;-31.998;115.906;2022-11-15T13:34:29;19.60;99.90
5940;DHT22;2995;-31.998;115.906;2022-11-15T13:37:01;19.60;99.90
5940;DHT22;2995;-31.998;115.906;2022-11-15T13:39:34;19.40;99.90
5940;DHT22;2995;-31.998;115.906;2022-11-15T13:42:15;19.30;99.90
5940;DHT22;2995;-31.998;115.906;2022-11-15T13:44:57;19.30;99.90
5940;DHT22;2995;-31.998;115.906;2022-11-15T13:47:29;19.30;99.90
5940;DHT22;2995;-31.998;115.906;2022-11-15T13:50:01;19.40;99.90
5940;DHT22;2995;-31.998;115.906;2022-11-15T13:52:36;19.30;99.90
5940;DHT22;2995;-31.998;115.906;2022-11-15T13:55:12;19.30;99.90
5940;DHT22;2995;-31.998;115.906;2022-11-15T13:57:47;19.10;99.90
5940;DHT22;2995;-31.998;115.906;2022-11-15T14:00:35;19.00;99.90
5940;DHT22;2995;-31.998;115.906;2022-11-15T14:03:17;19.00;99.90
5940;DHT22;2995;-31.998;115.906;2022-11-15T14:06:07;19.00;99.90
5940;DHT22;2995;-31.998;115.906;2022-11-15T14:08:40;18.90;99.90
5940;DHT22;2995;-31.998;115.906;2022-11-15T14:11:16;18.90;99.90
5940;DHT22;2995;-31.998;115.906;2022-11-15T14:14:10;19.00;99.90
5940;DHT22;2995;-31.998;115.906;2022-11-15T14:16:44;18.90;99.90
5940;DHT22;2995;-31.998;115.906;2022-11-15T14:19:37;18.90;99.90
5940;DHT22;2995;-31.998;115.906;2022-11-15T14:22:14;18.90;99.90
5940;DHT22;2995;-31.998;115.906;2022-11-15T14:27:35;18.80;99.90
5940;DHT22;2995;-31.998;115.906;2022-11-15T14:30:14;18.80;99.90
5940;DHT22;2995;-31.998;115.906;2022-11-15T14:32:47;18.70;99.90
5940;DHT22;2995;-31.998;115.906;2022-11-15T14:35:21;18.60;99.90
5940;DHT22;2995;-31.998;115.906;2022-11-15T14:37:53;18.60;99.90
5940;DHT22;2995;-31.998;115.906;2022-11-15T14:40:24;18.60;99.90
5940;DHT22;2995;-31.998;115.906;2022-11-15T14:42:56;18.60;99.90
5940;DHT22;2995;-31.998;115.906;2022-11-15T14:45:30;18.60;99.90
5940;DHT22;2995;-31.998;115.906;2022-11-15T14:48:01;18.60;99.90
5940;DHT22;2995;-31.998;115.906;2022-11-15T14:50:37;18.60;99.90
5940;DHT22;2995;-31.998;115.906;2022-11-15T14:53:13;18.60;99.90
5940;DHT22;2995;-31.998;115.906;2022-11-15T14:55:46;18.50;99.90
5940;DHT22;2995;-31.998;115.906;2022-11-15T14:58:18;18.40;99.90
5940;DHT22;2995;-31.998;115.906;2022-11-15T15:00:52;18.30;99.90
5940;DHT22;2995;-31.998;115.906;2022-11-15T15:03:24;18.20;99.90
5940;DHT22;2995;-31.998;115.906;2022-11-15T15:05:55;18.30;99.90
5940;DHT22;2995;-31.998;115.906;2022-11-15T15:08:27;18.20;99.90
5940;DHT22;2995;-31.998;115.906;2022-11-15T15:11:00;18.30;99.90
5940;DHT22;2995;-31.998;115.906;2022-11-15T15:13:31;18.20;99.90
5940;DHT22;2995;-31.998;115.906;2022-11-15T15:16:05;18.20;99.90
5940;DHT22;2995;-31.998;115.906;2022-11-15T15:18:37;18.30;99.90
5940;DHT22;2995;-31.998;115.906;2022-11-15T15:21:19;18.30;99.90
5940;DHT22;2995;-31.998;115.906;2022-11-15T15:23:52;18.20;99.90
5940;DHT22;2995;-31.998;115.906;2022-11-15T15:26:25;18.10;99.90
5940;DHT22;2995;-31.998;115.906;2022-11-15T15:28:57;18.10;99.90
5940;DHT22;2995;-31.998;115.906;2022-11-15T15:31:30;18.00;99.90
5940;DHT22;2995;-31.998;115.906;2022-11-15T15:34:02;18.00;99.90
5940;DHT22;2995;-31.998;115.906;2022-11-15T15:36:34;18.00;99.90
5940;DHT22;2995;-31.998;115.906;2022-11-15T15:39:08;18.00;99.90
5940;DHT22;2995;-31.998;115.906;2022-11-15T15:41:40;17.80;99.90
5940;DHT22;2995;-31.998;115.906;2022-11-15T15:44:12;17.70;99.90
5940;DHT22;2995;-31.998;115.906;2022-11-15T15:46:46;17.60;99.90
5940;DHT22;2995;-31.998;115.906;2022-11-15T15:49:18;17.60;99.90
5940;DHT22;2995;-31.998;115.906;2022-11-15T15:51:49;17.60;99.90
5940;DHT22;2995;-31.998;115.906;2022-11-15T15:54:21;17.50;99.90
5940;DHT22;2995;-31.998;115.906;2022-11-15T15:56:52;17.50;99.90
5940;DHT22;2995;-31.998;115.906;2022-11-15T15:59:24;17.60;99.90
5940;DHT22;2995;-31.998;115.906;2022-11-15T16:01:58;17.50;99.90
5940;DHT22;2995;-31.998;115.906;2022-11-15T16:04:30;17.50;99.90
5940;DHT22;2995;-31.998;115.906;2022-11-15T16:07:01;17.50;99.90
5940;DHT22;2995;-31.998;115.906;2022-11-15T16:09:33;17.40;99.90
5940;DHT22;2995;-31.998;115.906;2022-11-15T16:12:20;17.30;99.90
5940;DHT22;2995;-31.998;115.906;2022-11-15T16:14:51;17.20;99.90
5940;DHT22;2995;-31.998;115.906;2022-11-15T16:17:26;17.20;99.90
5940;DHT22;2995;-31.998;115.906;2022-11-15T16:19:59;17.20;99.90